Time;durP1;ratioP1;P1;durP2;ratioP2;P2;SDS_P1;SDS_P2;PMS_P1;PMS_P2;Temp;Humidity;BMP_temperature;BMP_pressure;BME280_temperature;BME280_humidity;BME280_pressure;Samples;Min_cycle;Max_cycle;Signal;HPM_P1;HPM_P2
2022/03/20 00:00:32;;;;;;;;;15.00;15.00;;;;;;;;5190284;28;8800;-76
2022/03/20 00:03:15;;;;;;;;;10.20;10.20;;;;;;;;5206809;28;8820;-76
2022/03/20 00:05:49;;;;;;;;;12.20;12.20;;;;;;;;5207122;28;8796;-78
2022/03/20 00:08:20;;;;;;;;;14.40;14.40;;;;;;;;5206834;28;8865;-76
2022/03/20 00:10:53;;;;;;;;;15.20;15.20;;;;;;;;5190046;28;8823;-77
2022/03/20 00:13:24;;;;;;;;;15.00;15.00;;;;;;;;5223345;28;8784;-77
2022/03/20 00:15:57;;;;;;;;;15.60;15.60;;;;;;;;5206681;28;8797;-79
2022/03/20 00:18:30;;;;;;;;;17.40;17.40;;;;;;;;5223845;28;8812;-77
2022/03/20 00:21:02;;;;;;;;;16.80;16.80;;;;;;;;5210204;28;8867;-78
2022/03/20 00:23:34;;;;;;;;;18.40;18.40;;;;;;;;5193821;28;8828;-78
2022/03/20 00:26:06;;;;;;;;;17.80;16.80;;;;;;;;5226834;28;8818;-79
2022/03/20 00:28:39;;;;;;;;;16.40;16.20;;;;;;;;5210425;28;8817;-79
2022/03/20 00:31:32;;;;;;;;;18.80;18.80;;;;;;;;5226945;28;8793;-78
2022/03/20 00:34:03;;;;;;;;;27.40;25.80;;;;;;;;5226358;28;8959;-80
2022/03/20 00:36:36;;;;;;;;;14.40;14.40;;;;;;;;5202905;28;8885;-77
2022/03/20 00:39:09;;;;;;;;;17.80;17.80;;;;;;;;5190280;28;8877;-80
2022/03/20 00:41:59;;;;;;;;;20.20;20.20;;;;;;;;5207663;28;8821;-77
2022/03/20 00:44:32;;;;;;;;;12.60;12.40;;;;;;;;5190235;28;9536;-80
2022/03/20 00:47:03;;;;;;;;;12.00;12.00;;;;;;;;5206170;28;8805;-79
2022/03/20 00:49:35;;;;;;;;;11.80;11.40;;;;;;;;5206060;28;8776;-73
2022/03/20 00:52:25;;;;;;;;;11.80;11.80;;;;;;;;5208353;28;8846;-76
2022/03/20 00:54:57;;;;;;;;;12.40;12.40;;;;;;;;5205199;28;8796;-76
2022/03/20 00:57:28;;;;;;;;;13.40;13.40;;;;;;;;5192009;28;8808;-73
2022/03/20 01:00:00;;;;;;;;;12.80;12.80;;;;;;;;5225982;28;8837;-73
2022/03/20 01:02:38;;;;;;;;;14.80;13.80;;;;;;;;5209353;28;8777;-73
2022/03/20 01:05:10;;;;;;;;;8.00;8.00;;;;;;;;5209412;28;8786;-72
2022/03/20 01:07:45;;;;;;;;;12.20;12.20;;;;;;;;5209177;28;8793;-72
2022/03/20 01:10:16;;;;;;;;;17.00;17.00;;;;;;;;5225597;28;8801;-72
2022/03/20 01:12:48;;;;;;;;;27.60;26.00;;;;;;;;5241907;28;9532;-72
2022/03/20 01:15:19;;;;;;;;;42.40;37.40;;;;;;;;5225497;28;8793;-74
2022/03/20 01:18:09;;;;;;;;;30.20;30.20;;;;;;;;5230161;28;8804;-74
2022/03/20 01:20:40;;;;;;;;;13.40;13.40;;;;;;;;5204861;28;8784;-72
2022/03/20 01:23:31;;;;;;;;;9.80;9.80;;;;;;;;5204906;28;8776;-74
2022/03/20 01:26:02;;;;;;;;;17.00;15.40;;;;;;;;5188496;28;8808;-75
2022/03/20 01:28:34;;;;;;;;;12.80;12.20;;;;;;;;5188391;28;8800;-75
2022/03/20 01:31:07;;;;;;;;;11.40;11.40;;;;;;;;5204659;28;8801;-74
2022/03/20 01:33:39;;;;;;;;;12.00;9.40;;;;;;;;5223040;28;8808;-73
2022/03/20 01:36:11;;;;;;;;;12.00;12.00;;;;;;;;5186623;28;8812;-75
2022/03/20 01:38:42;;;;;;;;;15.00;15.00;;;;;;;;5230825;28;8992;-77
2022/03/20 01:41:14;;;;;;;;;15.20;15.20;;;;;;;;5205780;28;8853;-75
2022/03/20 01:43:50;;;;;;;;;13.20;13.20;;;;;;;;5249578;28;8964;-76
2022/03/20 01:46:22;;;;;;;;;12.00;12.00;;;;;;;;5205223;28;9558;-75
2022/03/20 01:48:54;;;;;;;;;15.40;14.60;;;;;;;;5232936;28;8852;-77
2022/03/20 01:54:15;;;;;;;;;16.60;16.20;;;;;;;;5208968;28;8804;-79
2022/03/20 01:56:48;;;;;;;;;25.60;25.00;;;;;;;;5224579;28;8805;-79
2022/03/20 01:59:39;;;;;;;;;28.20;27.60;;;;;;;;5224847;28;8809;-79
2022/03/20 02:02:11;;;;;;;;;21.80;21.60;;;;;;;;5240824;28;8935;-76
2022/03/20 02:04:42;;;;;;;;;18.60;18.60;;;;;;;;5241173;28;8794;-75
2022/03/20 02:07:15;;;;;;;;;18.20;18.20;;;;;;;;5191895;28;8836;-76
2022/03/20 02:09:46;;;;;;;;;15.80;15.80;;;;;;;;5203837;28;8792;-76
2022/03/20 02:12:18;;;;;;;;;21.20;21.20;;;;;;;;5187553;28;8816;-74
2022/03/20 02:14:49;;;;;;;;;25.20;22.00;;;;;;;;5187199;28;8930;-77
2022/03/20 02:17:21;;;;;;;;;25.60;24.60;;;;;;;;5220217;28;8810;-76
2022/03/20 02:19:52;;;;;;;;;22.00;22.00;;;;;;;;5220601;28;8828;-75
2022/03/20 02:22:24;;;;;;;;;22.40;22.20;;;;;;;;5187238;28;8824;-75
2022/03/20 02:24:56;;;;;;;;;7.80;7.80;;;;;;;;5189097;28;8896;-74
2022/03/20 02:27:28;;;;;;;;;9.00;7.80;;;;;;;;5240989;28;9543;-75
2022/03/20 02:30:00;;;;;;;;;18.60;18.60;;;;;;;;5202719;28;8924;-76
2022/03/20 02:32:33;;;;;;;;;20.00;18.80;;;;;;;;5187482;28;8784;-77
2022/03/20 02:35:05;;;;;;;;;15.00;14.00;;;;;;;;5219964;28;8854;-78
2022/03/20 02:37:39;;;;;;;;;15.40;14.80;;;;;;;;5203442;28;8796;-78
2022/03/20 02:40:11;;;;;;;;;15.20;15.20;;;;;;;;5187600;28;8803;-79
2022/03/20 02:42:45;;;;;;;;;18.40;17.40;;;;;;;;5203551;28;8823;-75
2022/03/20 02:45:30;;;;;;;;;15.20;15.20;;;;;;;;5187174;28;9035;-75
2022/03/20 02:48:06;;;;;;;;;13.60;13.40;;;;;;;;5202059;28;8803;-77
2022/03/20 02:50:38;;;;;;;;;13.00;13.00;;;;;;;;5189717;28;8792;-81
2022/03/20 02:53:13;;;;;;;;;14.00;14.00;;;;;;;;5220046;28;8792;-82
2022/03/20 02:55:45;;;;;;;;;16.20;16.20;;;;;;;;5203419;28;8804;-80
2022/03/20 02:58:18;;;;;;;;;24.20;24.20;;;;;;;;5186962;28;8816;-80
2022/03/20 03:00:52;;;;;;;;;19.40;19.00;;;;;;;;5186852;28;8815;-79
2022/03/20 03:03:23;;;;;;;;;17.00;15.40;;;;;;;;5187169;28;8772;-77
2022/03/20 03:06:14;;;;;;;;;22.60;21.60;;;;;;;;5206075;28;8802;-78
2022/03/20 03:11:35;;;;;;;;;13.40;13.40;;;;;;;;5228137;28;8808;-84
2022/03/20 03:15:19;;;;;;;;;17.40;15.20;;;;;;;;5211232;28;8825;-87
2022/03/20 03:16:58;;;;;;;;;14.00;14.00;;;;;;;;5211298;28;8777;-84
2022/03/20 03:19:30;;;;;;;;;18.00;15.20;;;;;;;;5211162;28;8828;-84
2022/03/20 03:22:03;;;;;;;;;17.60;16.20;;;;;;;;5211223;28;8781;-85
2022/03/20 03:24:34;;;;;;;;;11.00;9.20;;;;;;;;5209881;28;8842;-84
2022/03/20 03:27:06;;;;;;;;;11.80;11.80;;;;;;;;5207332;28;8808;-83
2022/03/20 03:29:37;;;;;;;;;7.80;7.60;;;;;;;;5226117;28;8778;-83
2022/03/20 03:32:08;;;;;;;;;11.80;11.80;;;;;;;;5211666;28;8770;-86
2022/03/20 03:37:31;;;;;;;;;8.80;8.20;;;;;;;;5227709;28;8786;-84
2022/03/20 03:40:03;;;;;;;;;11.80;11.80;;;;;;;;5229546;28;8789;-81
2022/03/20 03:42:39;;;;;;;;;10.60;10.60;;;;;;;;5207264;28;8806;-83
2022/03/20 03:45:11;;;;;;;;;11.20;11.20;;;;;;;;5212540;28;8820;-80
2022/03/20 03:47:44;;;;;;;;;12.20;11.40;;;;;;;;5218046;28;8843;-79
2022/03/20 03:50:17;;;;;;;;;12.80;12.80;;;;;;;;5232438;28;8800;-80
2022/03/20 03:52:49;;;;;;;;;10.80;10.80;;;;;;;;5247793;28;8819;-78
2022/03/20 03:55:20;;;;;;;;;9.20;9.00;;;;;;;;5248606;28;8945;-76
2022/03/20 03:57:52;;;;;;;;;12.60;11.60;;;;;;;;5248311;28;8809;-77
2022/03/20 04:00:26;;;;;;;;;17.20;16.20;;;;;;;;5240432;28;9568;-81
2022/03/20 04:02:59;;;;;;;;;16.40;15.40;;;;;;;;5207965;28;8839;-79
2022/03/20 04:05:34;;;;;;;;;23.60;22.60;;;;;;;;5218564;28;8879;-77
2022/03/20 04:08:07;;;;;;;;;16.60;16.60;;;;;;;;5216462;28;8809;-80
2022/03/20 04:10:40;;;;;;;;;12.00;12.00;;;;;;;;5211435;28;8805;-78
2022/03/20 04:13:12;;;;;;;;;19.40;19.40;;;;;;;;5227353;28;8797;-77
2022/03/20 04:15:47;;;;;;;;;14.20;14.20;;;;;;;;5226592;28;8798;-77
2022/03/20 04:18:18;;;;;;;;;14.40;14.20;;;;;;;;5189357;28;8815;-77
2022/03/20 04:20:51;;;;;;;;;15.00;13.80;;;;;;;;5189292;28;8799;-76
2022/03/20 04:23:44;;;;;;;;;12.60;12.60;;;;;;;;5206069;28;8930;-76
2022/03/20 04:26:17;;;;;;;;;15.40;15.40;;;;;;;;5180337;28;8825;-76
2022/03/20 04:28:50;;;;;;;;;18.00;18.00;;;;;;;;5226779;28;8781;-76
2022/03/20 04:31:23;;;;;;;;;10.60;10.60;;;;;;;;5192006;28;8820;-79
2022/03/20 04:33:55;;;;;;;;;14.20;14.20;;;;;;;;5223555;28;8815;-82
2022/03/20 04:36:46;;;;;;;;;15.40;14.40;;;;;;;;5234617;28;8775;-76
2022/03/20 04:39:18;;;;;;;;;15.80;15.40;;;;;;;;5214647;28;8814;-81
2022/03/20 04:41:50;;;;;;;;;20.00;20.00;;;;;;;;5249189;28;8771;-75
2022/03/20 04:44:22;;;;;;;;;15.00;13.40;;;;;;;;5214290;28;8810;-79
2022/03/20 04:46:55;;;;;;;;;13.60;13.60;;;;;;;;5195300;28;9537;-71
2022/03/20 05:01:08;;;;;;;;;12.00;12.00;;;;;;;;5226467;28;8924;-74
2022/03/20 05:03:41;;;;;;;;;8.00;8.00;;;;;;;;5206887;28;8809;-77
2022/03/20 05:06:13;;;;;;;;;9.00;9.00;;;;;;;;5241074;28;8886;-77
2022/03/20 05:14:46;;;;;;;;;14.80;14.20;;;;;;;;5186597;28;8804;-76
2022/03/20 05:17:36;;;;;;;;;21.00;20.80;;;;;;;;5203384;28;8800;-76
2022/03/20 05:20:10;;;;;;;;;5.40;5.40;;;;;;;;5196879;28;8844;-75
2022/03/20 05:22:51;;;;;;;;;14.00;14.00;;;;;;;;5189402;28;8801;-76
2022/03/20 05:25:24;;;;;;;;;8.40;8.40;;;;;;;;5184416;28;8832;-76
2022/03/20 05:27:57;;;;;;;;;12.60;12.60;;;;;;;;5188198;28;8796;-75
2022/03/20 05:30:29;;;;;;;;;16.60;16.60;;;;;;;;5204352;28;9596;-76
2022/03/20 05:33:00;;;;;;;;;13.20;13.00;;;;;;;;5208275;28;8798;-76
2022/03/20 05:35:31;;;;;;;;;14.20;14.20;;;;;;;;5208880;28;8781;-75
2022/03/20 05:38:03;;;;;;;;;14.20;13.00;;;;;;;;5225473;28;8790;-76
2022/03/20 05:40:35;;;;;;;;;14.40;14.40;;;;;;;;5208905;28;8788;-76
2022/03/20 05:43:08;;;;;;;;;14.80;14.20;;;;;;;;5208150;28;8892;-76
2022/03/20 05:45:44;;;;;;;;;12.00;12.00;;;;;;;;5209048;28;8931;-75
2022/03/20 05:48:15;;;;;;;;;14.60;14.60;;;;;;;;5225391;28;8769;-78
2022/03/20 05:50:47;;;;;;;;;17.00;16.20;;;;;;;;5208534;28;8786;-76
2022/03/20 05:53:18;;;;;;;;;9.60;9.20;;;;;;;;5208473;28;8793;-74
2022/03/20 05:58:39;;;;;;;;;14.40;13.40;;;;;;;;5204399;28;9573;-75
2022/03/20 06:01:10;;;;;;;;;16.60;15.00;;;;;;;;5204147;28;9058;-75
2022/03/20 06:03:42;;;;;;;;;16.20;15.20;;;;;;;;5187881;28;8889;-75
2022/03/20 06:06:15;;;;;;;;;12.40;12.40;;;;;;;;5220601;28;8776;-75
2022/03/20 06:08:48;;;;;;;;;22.60;22.60;;;;;;;;5204514;28;8803;-75
2022/03/20 06:11:38;;;;;;;;;37.20;35.60;;;;;;;;5223169;28;8796;-75
2022/03/20 06:14:27;;;;;;;;;11.60;11.60;;;;;;;;5203913;28;8808;-76
2022/03/20 06:16:59;;;;;;;;;11.60;11.00;;;;;;;;5204086;28;8907;-75
2022/03/20 06:19:31;;;;;;;;;17.80;16.20;;;;;;;;5220047;28;8816;-75
2022/03/20 06:22:02;;;;;;;;;26.80;25.40;;;;;;;;5224021;28;8770;-76
2022/03/20 06:24:34;;;;;;;;;33.80;33.80;;;;;;;;5207907;28;8790;-77
2022/03/20 06:27:06;;;;;;;;;31.80;30.80;;;;;;;;5207686;28;8809;-77
2022/03/20 06:29:38;;;;;;;;;14.20;14.20;;;;;;;;5207860;28;8812;-76
2022/03/20 06:32:27;;;;;;;;;16.00;15.60;;;;;;;;5224176;28;8879;-76
2022/03/20 06:34:58;;;;;;;;;10.00;10.00;;;;;;;;5207733;28;8790;-76
2022/03/20 06:37:35;;;;;;;;;25.20;23.80;;;;;;;;5208223;28;8826;-77
2022/03/20 06:40:24;;;;;;;;;9.80;9.80;;;;;;;;5210729;28;8848;-76
2022/03/20 06:42:56;;;;;;;;;5.80;5.80;;;;;;;;5223849;28;8799;-76
2022/03/20 06:45:28;;;;;;;;;17.00;17.00;;;;;;;;5207586;28;8790;-76
2022/03/20 06:48:00;;;;;;;;;8.00;8.00;;;;;;;;5224539;28;8758;-77
2022/03/20 06:50:32;;;;;;;;;11.00;11.00;;;;;;;;5225662;28;8827;-71
2022/03/20 06:53:04;;;;;;;;;8.80;8.80;;;;;;;;5224204;28;8771;-72
2022/03/20 06:55:35;;;;;;;;;16.00;16.00;;;;;;;;5203538;28;8812;-74
2022/03/20 06:58:07;;;;;;;;;15.60;15.60;;;;;;;;5170629;28;8866;-70
2022/03/20 07:00:39;;;;;;;;;18.20;17.60;;;;;;;;5206172;28;8933;-73
2022/03/20 07:03:12;;;;;;;;;13.00;13.00;;;;;;;;5224306;28;8777;-65
2022/03/20 07:05:44;;;;;;;;;6.40;6.40;;;;;;;;5207634;28;8770;-72
2022/03/20 07:08:15;;;;;;;;;14.60;14.40;;;;;;;;5224018;28;9529;-77
2022/03/20 07:10:47;;;;;;;;;60.80;51.00;;;;;;;;5224667;28;8782;-76
2022/03/20 07:16:08;;;;;;;;;18.60;18.60;;;;;;;;5223614;28;8867;-75
2022/03/20 07:18:47;;;;;;;;;11.40;11.40;;;;;;;;5223819;28;9342;-75
2022/03/20 07:21:20;;;;;;;;;12.00;10.80;;;;;;;;5191192;28;8750;-78
2022/03/20 07:23:54;;;;;;;;;31.40;28.60;;;;;;;;5191687;28;8786;-84
2022/03/20 07:29:30;;;;;;;;;11.40;11.40;;;;;;;;5207517;28;8806;-77
2022/03/20 07:32:04;;;;;;;;;17.20;17.20;;;;;;;;5208453;28;8840;-78
2022/03/20 07:34:39;;;;;;;;;8.00;6.40;;;;;;;;5207673;28;8766;-78
2022/03/20 07:37:11;;;;;;;;;6.00;6.00;;;;;;;;5223364;28;8781;-75
2022/03/20 07:39:47;;;;;;;;;14.40;13.40;;;;;;;;5206768;28;8805;-78
2022/03/20 07:42:19;;;;;;;;;12.60;12.60;;;;;;;;5223510;28;8774;-73
2022/03/20 07:44:54;;;;;;;;;8.00;8.00;;;;;;;;5207215;28;8798;-74
2022/03/20 07:47:49;;;;;;;;;8.40;8.40;;;;;;;;5207351;28;8826;-73
2022/03/20 07:51:17;;;;;;;;;7.40;7.40;;;;;;;;5202734;28;8894;-72
2022/03/20 07:53:50;;;;;;;;;8.00;8.00;;;;;;;;5185371;28;8796;-73
2022/03/20 07:56:22;;;;;;;;;6.20;6.20;;;;;;;;5188805;28;8804;-73
2022/03/20 07:58:54;;;;;;;;;10.00;10.00;;;;;;;;5188792;28;8812;-72
2022/03/20 08:01:44;;;;;;;;;3.00;3.00;;;;;;;;5202993;28;8830;-73
2022/03/20 08:04:16;;;;;;;;;5.50;5.50;;;;;;;;5205570;28;8839;-73
2022/03/20 08:06:48;;;;;;;;;5.60;5.60;;;;;;;;5172818;28;8810;-73
2022/03/20 08:09:19;;;;;;;;;6.20;6.20;;;;;;;;5205706;28;8817;-73
2022/03/20 08:11:50;;;;;;;;;10.20;9.00;;;;;;;;5204994;28;8800;-73
2022/03/20 08:14:22;;;;;;;;;9.50;9.50;;;;;;;;5188740;28;8797;-71
2022/03/20 08:16:53;;;;;;;;;7.40;7.40;;;;;;;;5209594;28;9796;-71
2022/03/20 08:19:24;;;;;;;;;8.00;8.00;;;;;;;;5169329;28;8847;-71
2022/03/20 08:21:58;;;;;;;;;8.20;8.20;;;;;;;;5194844;28;8821;-71
2022/03/20 08:24:29;;;;;;;;;15.80;15.80;;;;;;;;5209231;28;9483;-73
2022/03/20 08:27:00;;;;;;;;;10.00;10.00;;;;;;;;5212326;28;8820;-72
2022/03/20 08:29:31;;;;;;;;;18.60;18.60;;;;;;;;5197674;28;8824;-73
2022/03/20 08:32:03;;;;;;;;;11.40;10.40;;;;;;;;5208900;28;9594;-72
2022/03/20 08:34:35;;;;;;;;;11.80;11.40;;;;;;;;5218155;28;8785;-72
2022/03/20 08:37:06;;;;;;;;;10.80;10.80;;;;;;;;5210135;28;8852;-72
2022/03/20 08:39:36;;;;;;;;;10.00;10.00;;;;;;;;5226097;28;8833;-72
2022/03/20 08:42:07;;;;;;;;;17.00;17.00;;;;;;;;5225956;28;8867;-71
2022/03/20 08:44:38;;;;;;;;;16.00;16.00;;;;;;;;5226051;28;11430;-72
2022/03/20 08:47:10;;;;;;;;;14.60;11.80;;;;;;;;5209519;28;8806;-71
2022/03/20 08:49:40;;;;;;;;;12.60;12.60;;;;;;;;5197315;28;8840;-72
2022/03/20 08:52:30;;;;;;;;;13.60;13.60;;;;;;;;5246954;28;8783;-71
2022/03/20 08:55:09;;;;;;;;;7.00;7.00;;;;;;;;5230600;28;8775;-71
2022/03/20 08:57:42;;;;;;;;;9.80;9.80;;;;;;;;5230135;28;8783;-72
2022/03/20 09:00:15;;;;;;;;;11.00;9.80;;;;;;;;5230733;28;8826;-71
2022/03/20 09:02:47;;;;;;;;;10.20;10.20;;;;;;;;5230470;28;8813;-71
2022/03/20 09:05:18;;;;;;;;;16.40;16.40;;;;;;;;5229434;28;8783;-72
2022/03/20 09:07:50;;;;;;;;;9.80;9.80;;;;;;;;5230111;28;8779;-71
2022/03/20 09:10:21;;;;;;;;;14.40;12.80;;;;;;;;5246419;28;8807;-71
2022/03/20 09:12:57;;;;;;;;;11.40;11.00;;;;;;;;5230018;28;8771;-71
2022/03/20 09:15:29;;;;;;;;;15.60;15.60;;;;;;;;5245198;28;8791;-73
2022/03/20 09:21:08;;;;;;;;;6.40;6.40;;;;;;;;5227481;28;8852;-73
2022/03/20 09:23:39;;;;;;;;;11.80;11.80;;;;;;;;5247379;28;8806;-72
2022/03/20 09:26:10;;;;;;;;;14.25;14.00;;;;;;;;5229124;28;8815;-73
2022/03/20 09:28:41;;;;;;;;;8.60;8.60;;;;;;;;5246231;28;8936;-73
2022/03/20 09:31:13;;;;;;;;;6.40;6.40;;;;;;;;5246297;28;8775;-72
2022/03/20 09:33:44;;;;;;;;;10.80;10.20;;;;;;;;5245972;28;9544;-72
2022/03/20 09:36:15;;;;;;;;;9.20;9.20;;;;;;;;5229187;28;8821;-72
2022/03/20 09:38:46;;;;;;;;;11.75;11.75;;;;;;;;5229403;28;8819;-71
2022/03/20 09:41:17;;;;;;;;;10.25;10.25;;;;;;;;5229478;28;11402;-72
2022/03/20 09:43:48;;;;;;;;;15.00;15.00;;;;;;;;5229161;28;8880;-70
2022/03/20 09:46:21;;;;;;;;;20.60;19.60;;;;;;;;5228939;28;8803;-71
2022/03/20 09:52:06;;;;;;;;;17.20;17.20;;;;;;;;5229483;28;9509;-70
2022/03/20 09:54:46;;;;;;;;;4.40;4.40;;;;;;;;5237760;28;8805;-72
2022/03/20 09:57:17;;;;;;;;;5.80;5.80;;;;;;;;5240115;28;9626;-72
2022/03/20 09:59:49;;;;;;;;;17.80;17.80;;;;;;;;5239532;28;9560;-72
2022/03/20 10:02:20;;;;;;;;;7.00;7.00;;;;;;;;5224140;28;8816;-72
2022/03/20 10:05:04;;;;;;;;;8.40;8.40;;;;;;;;5222807;28;9125;-72
2022/03/20 10:07:43;;;;;;;;;15.20;15.00;;;;;;;;5239942;28;8829;-72
2022/03/20 10:10:19;;;;;;;;;14.60;14.20;;;;;;;;5206315;28;8797;-72
2022/03/20 10:12:53;;;;;;;;;14.40;12.20;;;;;;;;5206318;28;8817;-74
2022/03/20 10:15:34;;;;;;;;;6.00;6.00;;;;;;;;5239653;28;8828;-72
2022/03/20 10:18:17;;;;;;;;;5.40;4.80;;;;;;;;5205991;28;8778;-72
2022/03/20 10:20:52;;;;;;;;;10.00;10.00;;;;;;;;5256865;28;8810;-73
2022/03/20 10:23:30;;;;;;;;;9.80;9.80;;;;;;;;5223359;28;9560;-72
2022/03/20 10:26:09;;;;;;;;;5.60;5.00;;;;;;;;5206246;28;8840;-73
2022/03/20 10:28:43;;;;;;;;;7.80;7.60;;;;;;;;5205850;28;8887;-72
2022/03/20 10:31:17;;;;;;;;;6.00;5.00;;;;;;;;5239053;28;8940;-71
2022/03/20 10:34:02;;;;;;;;;6.20;6.20;;;;;;;;5256163;28;8832;-72
2022/03/20 10:36:33;;;;;;;;;10.20;10.20;;;;;;;;5206015;28;8820;-72
2022/03/20 10:39:16;;;;;;;;;10.00;8.20;;;;;;;;5222340;28;9603;-71
2022/03/20 10:41:48;;;;;;;;;16.20;14.20;;;;;;;;5222682;28;8790;-72
2022/03/20 10:44:20;;;;;;;;;8.20;8.20;;;;;;;;5205619;28;8821;-72
2022/03/20 10:47:13;;;;;;;;;7.40;6.80;;;;;;;;5222243;28;8814;-72
2022/03/20 10:50:03;;;;;;;;;10.20;10.20;;;;;;;;5204857;28;8796;-73
2022/03/20 10:53:07;;;;;;;;;6.00;6.00;;;;;;;;5210111;28;8763;-72
2022/03/20 10:55:38;;;;;;;;;6.00;6.00;;;;;;;;5228874;28;8775;-72
2022/03/20 10:58:20;;;;;;;;;18.80;18.80;;;;;;;;5209257;28;8810;-72
2022/03/20 11:00:51;;;;;;;;;11.80;11.00;;;;;;;;5207681;28;8774;-71
2022/03/20 11:03:23;;;;;;;;;2.00;2.00;;;;;;;;5207420;28;8782;-71
2022/03/20 11:05:56;;;;;;;;;7.00;7.00;;;;;;;;5207756;28;8782;-72
2022/03/20 11:08:46;;;;;;;;;5.80;5.80;;;;;;;;5210397;28;8870;-72
2022/03/20 11:11:19;;;;;;;;;7.00;6.00;;;;;;;;5223852;28;8783;-71
2022/03/20 11:13:50;;;;;;;;;7.40;7.40;;;;;;;;5203134;28;9631;-73
2022/03/20 11:16:24;;;;;;;;;5.40;5.40;;;;;;;;5203195;28;8797;-69
2022/03/20 11:18:56;;;;;;;;;9.40;8.40;;;;;;;;5203323;28;8788;-74
2022/03/20 11:21:47;;;;;;;;;4.20;4.20;;;;;;;;5220443;28;8830;-71
2022/03/20 11:24:18;;;;;;;;;2.40;2.40;;;;;;;;5228248;28;8780;-71
2022/03/20 11:26:50;;;;;;;;;5.40;5.40;;;;;;;;5241316;28;8806;-71
2022/03/20 11:29:23;;;;;;;;;9.60;9.60;;;;;;;;5222432;28;8780;-73
2022/03/20 11:31:54;;;;;;;;;2.80;2.80;;;;;;;;5207325;28;8928;-73
2022/03/20 11:34:26;;;;;;;;;3.80;3.80;;;;;;;;5238864;28;8816;-73
2022/03/20 11:37:16;;;;;;;;;4.40;4.40;;;;;;;;5207178;28;8817;-73
2022/03/20 11:40:06;;;;;;;;;3.80;3.80;;;;;;;;5213599;28;9520;-72
2022/03/20 11:42:38;;;;;;;;;26.20;24.60;;;;;;;;5219131;28;8787;-72
2022/03/20 11:45:20;;;;;;;;;6.40;6.40;;;;;;;;5239964;28;8841;-71
2022/03/20 11:47:52;;;;;;;;;5.20;5.20;;;;;;;;5210412;28;8806;-72
2022/03/20 11:50:24;;;;;;;;;9.80;9.80;;;;;;;;5224969;28;8804;-71
2022/03/20 11:53:00;;;;;;;;;5.00;5.00;;;;;;;;5206557;28;8835;-72
2022/03/20 11:55:42;;;;;;;;;11.20;11.20;;;;;;;;5223527;28;8807;-71
2022/03/20 11:58:22;;;;;;;;;3.60;3.60;;;;;;;;5223506;28;8804;-71
2022/03/20 12:01:04;;;;;;;;;5.20;4.80;;;;;;;;5240499;28;8784;-70
2022/03/20 12:03:44;;;;;;;;;6.80;6.80;;;;;;;;5222853;28;8796;-71
2022/03/20 12:06:30;;;;;;;;;1.40;1.40;;;;;;;;5208408;28;8796;-70
2022/03/20 12:09:02;;;;;;;;;9.00;8.60;;;;;;;;5190060;28;8814;-71
2022/03/20 12:11:52;;;;;;;;;7.80;7.80;;;;;;;;5206982;28;8784;-72
2022/03/20 12:14:30;;;;;;;;;26.20;23.20;;;;;;;;5205236;28;8787;-72
2022/03/20 12:17:01;;;;;;;;;23.40;23.40;;;;;;;;5234747;28;8790;-71
2022/03/20 12:19:36;;;;;;;;;4.20;4.20;;;;;;;;5227648;28;8907;-72
2022/03/20 12:22:15;;;;;;;;;8.00;7.00;;;;;;;;5239674;28;8812;-71
2022/03/20 12:24:49;;;;;;;;;24.40;24.40;;;;;;;;5206008;28;8807;-71
2022/03/20 12:27:20;;;;;;;;;22.20;21.20;;;;;;;;5222102;28;8820;-71
2022/03/20 12:29:51;;;;;;;;;21.40;21.00;;;;;;;;5206365;28;8922;-71
2022/03/20 12:32:23;;;;;;;;;8.00;8.00;;;;;;;;5205675;28;8784;-71
2022/03/20 12:34:58;;;;;;;;;13.00;13.00;;;;;;;;5189290;28;8812;-72
2022/03/20 12:40:10;;;;;;;;;2.00;2.00;;;;;;;;5209399;28;9527;-71
2022/03/20 12:42:43;;;;;;;;;13.80;13.40;;;;;;;;5209878;28;11441;-71
2022/03/20 12:45:16;;;;;;;;;11.60;10.20;;;;;;;;5221015;28;9592;-72
2022/03/20 12:48:07;;;;;;;;;8.00;8.00;;;;;;;;5247058;28;8801;-72
2022/03/20 12:50:39;;;;;;;;;5.40;5.00;;;;;;;;5247659;28;8806;-70
2022/03/20 12:53:15;;;;;;;;;10.60;10.60;;;;;;;;5217709;28;8934;-71
2022/03/20 12:55:56;;;;;;;;;4.40;4.40;;;;;;;;5226219;28;9544;-71
2022/03/20 12:58:28;;;;;;;;;4.00;4.00;;;;;;;;5193100;28;8795;-71
2022/03/20 13:00:59;;;;;;;;;13.40;12.20;;;;;;;;5232191;28;9521;-72
2022/03/20 13:03:30;;;;;;;;;10.60;10.60;;;;;;;;5191500;28;8806;-73
2022/03/20 13:06:03;;;;;;;;;8.40;8.40;;;;;;;;5209538;28;9505;-72
2022/03/20 13:08:34;;;;;;;;;11.40;10.00;;;;;;;;5208734;28;8786;-73
2022/03/20 13:11:48;;;;;;;;;5.00;4.80;;;;;;;;5225389;28;8794;-73
2022/03/20 13:14:05;;;;;;;;;7.80;7.80;;;;;;;;5225743;28;8812;-73
2022/03/20 13:16:46;;;;;;;;;11.40;11.40;;;;;;;;5207396;28;8821;-72
2022/03/20 13:19:25;;;;;;;;;0.20;0.20;;;;;;;;5225235;28;8797;-71
2022/03/20 13:21:57;;;;;;;;;3.80;3.80;;;;;;;;5208459;28;8808;-71
2022/03/20 13:24:46;;;;;;;;;2.60;2.60;;;;;;;;5225207;28;8817;-71
2022/03/20 13:27:38;;;;;;;;;8.60;8.60;;;;;;;;5224988;28;8810;-72
2022/03/20 13:30:09;;;;;;;;;24.20;24.00;;;;;;;;5208812;28;8782;-72
2022/03/20 13:32:44;;;;;;;;;11.00;10.20;;;;;;;;5241830;28;8805;-70
2022/03/20 13:35:34;;;;;;;;;4.00;4.00;;;;;;;;5238838;28;8812;-73
2022/03/20 13:38:05;;;;;;;;;4.00;4.00;;;;;;;;5241384;28;8801;-71
2022/03/20 13:41:03;;;;;;;;;7.40;7.40;;;;;;;;5239410;28;8821;-72
2022/03/20 13:43:34;;;;;;;;;16.40;16.40;;;;;;;;5256605;28;8914;-72
2022/03/20 13:46:27;;;;;;;;;7.00;7.00;;;;;;;;5224799;28;8798;-72
2022/03/20 13:48:59;;;;;;;;;2.00;2.00;;;;;;;;5225179;28;8907;-72
2022/03/20 13:51:30;;;;;;;;;5.60;5.60;;;;;;;;5224934;28;8813;-72
2022/03/20 13:54:12;;;;;;;;;6.40;6.40;;;;;;;;5234730;28;9566;-73
2022/03/20 13:56:45;;;;;;;;;5.40;5.40;;;;;;;;5214357;28;8817;-72
2022/03/20 13:59:17;;;;;;;;;3.60;3.60;;;;;;;;5208096;28;9563;-72
2022/03/20 14:01:54;;;;;;;;;2.40;2.40;;;;;;;;5221698;28;8833;-71
2022/03/20 14:04:25;;;;;;;;;4.60;4.60;;;;;;;;5227761;28;8797;-73
2022/03/20 14:06:57;;;;;;;;;7.40;7.40;;;;;;;;5241343;28;8986;-73
2022/03/20 14:09:38;;;;;;;;;6.60;6.60;;;;;;;;5224131;28;8793;-73
2022/03/20 14:12:28;;;;;;;;;45.40;38.80;;;;;;;;5208152;28;8786;-73
2022/03/20 14:15:04;;;;;;;;;24.40;24.00;;;;;;;;5207948;28;8804;-73
2022/03/20 14:17:45;;;;;;;;;9.00;8.20;;;;;;;;5207161;28;8810;-73
2022/03/20 14:20:24;;;;;;;;;6.40;6.40;;;;;;;;5215852;28;8860;-73
2022/03/20 14:22:57;;;;;;;;;3.80;3.80;;;;;;;;5220701;28;8836;-73
2022/03/20 14:25:29;;;;;;;;;9.80;9.00;;;;;;;;5203515;28;8835;-73
2022/03/20 14:28:14;;;;;;;;;7.20;7.20;;;;;;;;5187316;28;8822;-73
2022/03/20 14:39:50;;;;;;;;;4.00;4.00;;;;;;;;5203600;28;8819;-73
2022/03/20 14:42:40;;;;;;;;;6.40;6.00;;;;;;;;5215764;28;8809;-73
2022/03/20 14:45:13;;;;;;;;;10.00;10.00;;;;;;;;5224246;28;8805;-72
2022/03/20 14:47:44;;;;;;;;;16.80;16.80;;;;;;;;5240672;28;8782;-72
2022/03/20 14:50:18;;;;;;;;;28.75;27.50;;;;;;;;5223692;28;8790;-73
2022/03/20 14:52:49;;;;;;;;;14.20;14.20;;;;;;;;5203321;28;9971;-73
2022/03/20 14:55:21;;;;;;;;;10.00;10.00;;;;;;;;5228896;28;8819;-73
2022/03/20 14:57:55;;;;;;;;;7.40;7.00;;;;;;;;5218387;28;8789;-72
2022/03/20 15:00:27;;;;;;;;;6.00;6.00;;;;;;;;5227452;28;8891;-73
2022/03/20 15:03:00;;;;;;;;;6.40;6.40;;;;;;;;5220468;28;8811;-72
2022/03/20 15:05:31;;;;;;;;;9.60;9.60;;;;;;;;5207508;28;8804;-73
2022/03/20 15:13:44;;;;;;;;;19.00;19.00;;;;;;;;5210831;28;8801;-76
2022/03/20 15:16:21;;;;;;;;;13.80;13.80;;;;;;;;5243258;28;8819;-76
2022/03/20 15:19:07;;;;;;;;;24.80;24.60;;;;;;;;5223722;28;8855;-75
2022/03/20 15:21:38;;;;;;;;;9.20;9.20;;;;;;;;5213492;28;8772;-72
2022/03/20 15:24:09;;;;;;;;;2.00;2.00;;;;;;;;5191046;28;8784;-73
2022/03/20 15:26:41;;;;;;;;;6.40;6.40;;;;;;;;5207173;28;8811;-74
2022/03/20 15:29:13;;;;;;;;;5.80;5.80;;;;;;;;5209004;28;8849;-73
2022/03/20 15:31:45;;;;;;;;;6.80;6.80;;;;;;;;5190758;28;8789;-73
2022/03/20 15:34:17;;;;;;;;;28.80;20.80;;;;;;;;5207701;28;8776;-73
2022/03/20 15:36:50;;;;;;;;;11.80;11.40;;;;;;;;5205193;28;8901;-71
2022/03/20 15:39:21;;;;;;;;;4.40;4.40;;;;;;;;5190631;28;8796;-72
2022/03/20 15:42:10;;;;;;;;;18.60;16.40;;;;;;;;5232552;28;8809;-74
2022/03/20 15:44:41;;;;;;;;;37.60;33.80;;;;;;;;5227402;28;8975;-78
2022/03/20 15:47:12;;;;;;;;;30.20;23.80;;;;;;;;5210610;28;8939;-74
2022/03/20 15:49:44;;;;;;;;;16.00;15.80;;;;;;;;5211743;28;8785;-72
2022/03/20 15:52:15;;;;;;;;;38.00;35.00;;;;;;;;5209372;28;8797;-71
2022/03/20 15:54:46;;;;;;;;;67.00;54.40;;;;;;;;5210165;28;8802;-71
2022/03/20 15:57:16;;;;;;;;;59.00;47.00;;;;;;;;5227538;28;9588;-71
2022/03/20 15:59:48;;;;;;;;;27.40;26.80;;;;;;;;5232626;28;8820;-73
2022/03/20 16:02:19;;;;;;;;;48.00;41.20;;;;;;;;5223107;28;8804;-74
2022/03/20 16:05:08;;;;;;;;;34.40;33.40;;;;;;;;5208136;28;8808;-72
2022/03/20 16:07:39;;;;;;;;;26.25;26.25;;;;;;;;5210900;28;8832;-73
2022/03/20 16:10:11;;;;;;;;;9.60;7.20;;;;;;;;5222844;28;11444;-73
2022/03/20 16:13:01;;;;;;;;;23.20;21.40;;;;;;;;5221639;28;8819;-72
2022/03/20 16:15:36;;;;;;;;;17.80;17.80;;;;;;;;5242169;28;8813;-72
2022/03/20 16:18:13;;;;;;;;;10.60;10.60;;;;;;;;5231287;28;8803;-74
2022/03/20 16:20:46;;;;;;;;;8.60;7.20;;;;;;;;5231571;28;8963;-71
2022/03/20 16:29:16;;;;;;;;;18.40;18.40;;;;;;;;5231230;28;9514;-72